sensor_id;sensor_type;location;lat;lon;timestamp;P1;P2;P0
14880;PMS7003;7533;51.278;12.588;2022-08-20T00:04:48;15.25;14.00;9.25
14880;PMS7003;7533;51.278;12.588;2022-08-20T00:09:51;18.75;18.25;10.00
14880;PMS7003;7533;51.278;12.588;2022-08-20T00:14:53;19.00;17.75;10.75
14880;PMS7003;7533;51.278;12.588;2022-08-20T00:19:58;16.25;14.50;9.00
14880;PMS7003;7533;51.278;12.588;2022-08-20T00:25:00;16.50;16.25;10.00
14880;PMS7003;7533;51.278;12.588;2022-08-20T00:30:04;16.25;15.25;9.00
14880;PMS7003;7533;51.278;12.588;2022-08-20T00:35:12;15.50;15.50;9.50
14880;PMS7003;7533;51.278;12.588;2022-08-20T00:40:19;15.25;13.50;8.25
14880;PMS7003;7533;51.278;12.588;2022-08-20T00:45:25;16.50;14.75;10.00
14880;PMS7003;7533;51.278;12.588;2022-08-20T00:50:32;19.50;16.75;9.50
14880;PMS7003;7533;51.278;12.588;2022-08-20T00:55:37;16.50;15.50;10.00
14880;PMS7003;7533;51.278;12.588;2022-08-20T01:00:42;16.75;15.75;9.50
14880;PMS7003;7533;51.278;12.588;2022-08-20T01:05:49;15.00;13.75;8.50
14880;PMS7003;7533;51.278;12.588;2022-08-20T01:10:53;15.00;14.50;8.50
14880;PMS7003;7533;51.278;12.588;2022-08-20T01:16:09;16.25;16.25;9.00
14880;PMS7003;7533;51.278;12.588;2022-08-20T01:21:20;14.00;13.25;8.00
14880;PMS7003;7533;51.278;12.588;2022-08-20T01:26:28;15.25;14.50;9.00
14880;PMS7003;7533;51.278;12.588;2022-08-20T01:31:37;16.75;15.00;8.75
14880;PMS7003;7533;51.278;12.588;2022-08-20T01:36:43;16.50;14.25;9.00
14880;PMS7003;7533;51.278;12.588;2022-08-20T01:41:53;14.00;13.50;8.25
14880;PMS7003;7533;51.278;12.588;2022-08-20T01:47:09;15.00;13.00;9.00
14880;PMS7003;7533;51.278;12.588;2022-08-20T01:52:18;20.00;17.50;10.00
14880;PMS7003;7533;51.278;12.588;2022-08-20T01:57:34;12.25;11.25;7.00
14880;PMS7003;7533;51.278;12.588;2022-08-20T02:02:38;14.00;13.75;8.25
14880;PMS7003;7533;51.278;12.588;2022-08-20T02:07:41;14.25;12.75;8.00
14880;PMS7003;7533;51.278;12.588;2022-08-20T02:12:45;15.00;13.50;7.00
14880;PMS7003;7533;51.278;12.588;2022-08-20T02:17:48;14.75;12.25;8.00
14880;PMS7003;7533;51.278;12.588;2022-08-20T02:22:53;14.50;12.00;7.50
14880;PMS7003;7533;51.278;12.588;2022-08-20T02:27:59;13.00;11.25;7.00
14880;PMS7003;7533;51.278;12.588;2022-08-20T02:33:04;13.00;12.75;8.00
14880;PMS7003;7533;51.278;12.588;2022-08-20T02:38:10;15.00;13.25;8.25
14880;PMS7003;7533;51.278;12.588;2022-08-20T02:43:15;15.00;14.00;8.50
14880;PMS7003;7533;51.278;12.588;2022-08-20T02:48:20;16.50;15.25;8.50
14880;PMS7003;7533;51.278;12.588;2022-08-20T02:53:24;11.25;11.25;7.25
14880;PMS7003;7533;51.278;12.588;2022-08-20T02:58:29;15.25;13.00;8.25
14880;PMS7003;7533;51.278;12.588;2022-08-20T03:03:32;15.00;13.25;8.75
14880;PMS7003;7533;51.278;12.588;2022-08-20T03:08:35;15.75;14.25;9.25
14880;PMS7003;7533;51.278;12.588;2022-08-20T03:13:39;16.25;13.00;8.00
14880;PMS7003;7533;51.278;12.588;2022-08-20T03:18:44;17.75;13.50;9.00
14880;PMS7003;7533;51.278;12.588;2022-08-20T03:23:52;12.50;11.50;7.75
14880;PMS7003;7533;51.278;12.588;2022-08-20T03:28:56;11.00;11.00;7.25
14880;PMS7003;7533;51.278;12.588;2022-08-20T03:33:59;13.25;13.25;8.25
14880;PMS7003;7533;51.278;12.588;2022-08-20T03:39:03;14.50;13.75;7.75
14880;PMS7003;7533;51.278;12.588;2022-08-20T03:44:12;14.50;13.00;8.25
14880;PMS7003;7533;51.278;12.588;2022-08-20T03:49:15;19.25;16.00;9.75
14880;PMS7003;7533;51.278;12.588;2022-08-20T03:54:18;11.25;10.00;7.75
14880;PMS7003;7533;51.278;12.588;2022-08-20T03:59:22;13.25;12.50;6.75
14880;PMS7003;7533;51.278;12.588;2022-08-20T04:04:25;15.50;12.25;7.50
14880;PMS7003;7533;51.278;12.588;2022-08-20T04:09:28;23.00;21.50;12.00
14880;PMS7003;7533;51.278;12.588;2022-08-20T04:14:33;27.20;24.20;14.40
14880;PMS7003;7533;51.278;12.588;2022-08-20T04:19:37;33.00;26.40;15.20
14880;PMS7003;7533;51.278;12.588;2022-08-20T04:24:40;25.50;24.25;14.50
14880;PMS7003;7533;51.278;12.588;2022-08-20T04:29:45;26.75;24.75;14.75
14880;PMS7003;7533;51.278;12.588;2022-08-20T04:34:48;34.80;28.60;15.20
14880;PMS7003;7533;51.278;12.588;2022-08-20T04:39:52;26.50;25.00;13.75
14880;PMS7003;7533;51.278;12.588;2022-08-20T04:45:14;29.60;25.60;15.60
14880;PMS7003;7533;51.278;12.588;2022-08-20T04:50:17;28.00;24.50;14.00
14880;PMS7003;7533;51.278;12.588;2022-08-20T04:55:21;28.20;25.60;15.80
14880;PMS7003;7533;51.278;12.588;2022-08-20T05:00:25;26.80;25.40;14.60
14880;PMS7003;7533;51.278;12.588;2022-08-20T05:05:27;28.75;24.25;14.50
14880;PMS7003;7533;51.278;12.588;2022-08-20T05:10:31;28.00;25.25;14.50
14880;PMS7003;7533;51.278;12.588;2022-08-20T05:15:36;29.25;24.00;14.00
14880;PMS7003;7533;51.278;12.588;2022-08-20T05:20:40;27.50;24.50;15.25
14880;PMS7003;7533;51.278;12.588;2022-08-20T05:25:44;32.60;29.20;14.40
14880;PMS7003;7533;51.278;12.588;2022-08-20T05:30:51;30.60;28.00;14.60
14880;PMS7003;7533;51.278;12.588;2022-08-20T05:35:55;31.25;27.75;14.00
14880;PMS7003;7533;51.278;12.588;2022-08-20T05:40:58;31.50;25.75;14.25
14880;PMS7003;7533;51.278;12.588;2022-08-20T05:46:03;34.00;27.80;16.60
14880;PMS7003;7533;51.278;12.588;2022-08-20T05:51:06;29.60;26.60;15.20
14880;PMS7003;7533;51.278;12.588;2022-08-20T05:56:14;32.40;26.80;15.20
14880;PMS7003;7533;51.278;12.588;2022-08-20T06:01:19;32.20;29.00;16.60
14880;PMS7003;7533;51.278;12.588;2022-08-20T06:06:21;42.60;30.80;17.20
14880;PMS7003;7533;51.278;12.588;2022-08-20T06:11:44;35.00;29.20;17.00
14880;PMS7003;7533;51.278;12.588;2022-08-20T06:16:48;35.60;29.00;17.20
14880;PMS7003;7533;51.278;12.588;2022-08-20T06:21:59;35.20;28.20;16.60
14880;PMS7003;7533;51.278;12.588;2022-08-20T06:27:18;39.20;30.40;17.00
14880;PMS7003;7533;51.278;12.588;2022-08-20T06:32:23;28.75;24.00;14.50
14880;PMS7003;7533;51.278;12.588;2022-08-20T06:37:33;34.40;28.80;15.20
14880;PMS7003;7533;51.278;12.588;2022-08-20T06:42:37;33.80;29.80;18.00
14880;PMS7003;7533;51.278;12.588;2022-08-20T06:47:50;35.00;27.40;15.60
14880;PMS7003;7533;51.278;12.588;2022-08-20T06:52:55;29.75;24.25;14.50
14880;PMS7003;7533;51.278;12.588;2022-08-20T06:57:58;33.75;28.75;15.75
14880;PMS7003;7533;51.278;12.588;2022-08-20T07:03:05;26.25;22.75;14.00
14880;PMS7003;7533;51.278;12.588;2022-08-20T07:08:08;28.50;23.00;14.75
14880;PMS7003;7533;51.278;12.588;2022-08-20T07:13:12;24.00;23.50;13.75
14880;PMS7003;7533;51.278;12.588;2022-08-20T07:18:18;32.75;27.25;14.00
14880;PMS7003;7533;51.278;12.588;2022-08-20T07:23:29;25.00;22.75;13.00
14880;PMS7003;7533;51.278;12.588;2022-08-20T07:28:32;25.75;22.00;13.50
14880;PMS7003;7533;51.278;12.588;2022-08-20T07:33:36;29.75;25.25;15.25
14880;PMS7003;7533;51.278;12.588;2022-08-20T07:38:41;28.00;23.00;13.25
14880;PMS7003;7533;51.278;12.588;2022-08-20T07:43:47;30.50;25.25;14.00
14880;PMS7003;7533;51.278;12.588;2022-08-20T07:48:51;28.00;23.75;14.75
14880;PMS7003;7533;51.278;12.588;2022-08-20T07:53:54;28.40;25.80;15.00
14880;PMS7003;7533;51.278;12.588;2022-08-20T07:58:58;26.00;24.75;14.25
14880;PMS7003;7533;51.278;12.588;2022-08-20T08:04:04;30.00;24.75;16.00
14880;PMS7003;7533;51.278;12.588;2022-08-20T08:09:07;28.00;24.50;14.00
14880;PMS7003;7533;51.278;12.588;2022-08-20T08:14:13;26.00;21.75;13.50
14880;PMS7003;7533;51.278;12.588;2022-08-20T08:19:20;25.50;22.00;13.50
14880;PMS7003;7533;51.278;12.588;2022-08-20T08:24:24;26.00;25.00;14.25
14880;PMS7003;7533;51.278;12.588;2022-08-20T08:29:29;30.00;26.50;15.50
14880;PMS7003;7533;51.278;12.588;2022-08-20T08:34:33;32.00;27.75;15.75
14880;PMS7003;7533;51.278;12.588;2022-08-20T08:39:37;27.50;26.00;15.00
14880;PMS7003;7533;51.278;12.588;2022-08-20T08:44:40;29.40;24.20;16.00
14880;PMS7003;7533;51.278;12.588;2022-08-20T08:49:45;28.25;25.50;15.00
14880;PMS7003;7533;51.278;12.588;2022-08-20T08:54:50;29.75;27.50;15.00
14880;PMS7003;7533;51.278;12.588;2022-08-20T08:59:57;29.00;26.75;15.25
14880;PMS7003;7533;51.278;12.588;2022-08-20T09:05:11;28.50;24.00;14.50
14880;PMS7003;7533;51.278;12.588;2022-08-20T09:10:17;31.75;27.75;15.75
14880;PMS7003;7533;51.278;12.588;2022-08-20T09:15:23;30.75;27.00;15.25
14880;PMS7003;7533;51.278;12.588;2022-08-20T09:20:28;28.00;24.00;15.25
14880;PMS7003;7533;51.278;12.588;2022-08-20T09:25:31;29.25;24.75;14.25
14880;PMS7003;7533;51.278;12.588;2022-08-20T09:30:34;26.50;24.75;14.00
14880;PMS7003;7533;51.278;12.588;2022-08-20T09:35:40;32.75;26.25;15.00
14880;PMS7003;7533;51.278;12.588;2022-08-20T09:40:45;29.75;24.00;15.25
14880;PMS7003;7533;51.278;12.588;2022-08-20T09:45:48;30.25;23.25;14.00
14880;PMS7003;7533;51.278;12.588;2022-08-20T09:50:52;29.40;27.00;15.40
14880;PMS7003;7533;51.278;12.588;2022-08-20T09:55:55;34.00;27.40;15.40
14880;PMS7003;7533;51.278;12.588;2022-08-20T10:00:59;36.40;30.80;15.40
14880;PMS7003;7533;51.278;12.588;2022-08-20T10:06:06;34.00;28.20;15.60
14880;PMS7003;7533;51.278;12.588;2022-08-20T10:11:09;34.20;28.80;15.80
14880;PMS7003;7533;51.278;12.588;2022-08-20T10:16:12;32.00;30.20;17.20
14880;PMS7003;7533;51.278;12.588;2022-08-20T10:21:16;33.40;27.40;15.60
14880;PMS7003;7533;51.278;12.588;2022-08-20T10:26:19;37.40;30.80;17.00
14880;PMS7003;7533;51.278;12.588;2022-08-20T10:31:22;32.20;27.40;17.20
14880;PMS7003;7533;51.278;12.588;2022-08-20T10:36:26;32.00;28.80;17.40
14880;PMS7003;7533;51.278;12.588;2022-08-20T10:41:29;32.80;26.80;16.20
14880;PMS7003;7533;51.278;12.588;2022-08-20T10:46:32;28.75;28.25;16.75
14880;PMS7003;7533;51.278;12.588;2022-08-20T10:51:36;35.80;28.20;17.00
14880;PMS7003;7533;51.278;12.588;2022-08-20T10:56:39;29.50;27.00;15.75
14880;PMS7003;7533;51.278;12.588;2022-08-20T11:01:42;34.40;29.60;16.40
14880;PMS7003;7533;51.278;12.588;2022-08-20T11:06:46;35.20;26.80;15.80
14880;PMS7003;7533;51.278;12.588;2022-08-20T11:11:49;29.40;26.80;16.20
14880;PMS7003;7533;51.278;12.588;2022-08-20T11:16:52;36.60;29.80;17.00
14880;PMS7003;7533;51.278;12.588;2022-08-20T11:21:56;34.80;30.00;18.80
14880;PMS7003;7533;51.278;12.588;2022-08-20T11:26:59;31.40;29.00;17.80
14880;PMS7003;7533;51.278;12.588;2022-08-20T11:32:03;35.00;30.40;16.00
14880;PMS7003;7533;51.278;12.588;2022-08-20T11:37:08;32.40;28.00;16.20
14880;PMS7003;7533;51.278;12.588;2022-08-20T11:42:11;35.80;29.80;17.40
14880;PMS7003;7533;51.278;12.588;2022-08-20T11:47:18;37.20;30.60;18.00
14880;PMS7003;7533;51.278;12.588;2022-08-20T11:52:24;39.60;29.80;17.00
14880;PMS7003;7533;51.278;12.588;2022-08-20T11:57:30;34.20;28.20;18.20
14880;PMS7003;7533;51.278;12.588;2022-08-20T12:02:34;40.80;33.00;18.40
14880;PMS7003;7533;51.278;12.588;2022-08-20T12:07:39;33.40;29.40;18.60
14880;PMS7003;7533;51.278;12.588;2022-08-20T12:12:42;39.40;30.60;17.60
14880;PMS7003;7533;51.278;12.588;2022-08-20T12:17:45;40.20;31.40;18.80
14880;PMS7003;7533;51.278;12.588;2022-08-20T12:22:49;38.00;31.20;18.00
14880;PMS7003;7533;51.278;12.588;2022-08-20T12:27:53;32.20;29.40;17.20
14880;PMS7003;7533;51.278;12.588;2022-08-20T12:32:56;33.00;29.40;18.20
14880;PMS7003;7533;51.278;12.588;2022-08-20T12:38:02;29.40;27.00;17.20
14880;PMS7003;7533;51.278;12.588;2022-08-20T12:43:05;26.75;23.25;15.25
14880;PMS7003;7533;51.278;12.588;2022-08-20T12:48:09;35.80;27.80;16.60
14880;PMS7003;7533;51.278;12.588;2022-08-20T12:53:15;33.25;28.25;16.00
14880;PMS7003;7533;51.278;12.588;2022-08-20T12:58:18;39.40;31.80;18.40
14880;PMS7003;7533;51.278;12.588;2022-08-20T13:03:21;37.20;30.00;18.00
14880;PMS7003;7533;51.278;12.588;2022-08-20T13:08:25;35.60;30.20;18.00
14880;PMS7003;7533;51.278;12.588;2022-08-20T13:13:29;32.20;28.40;16.80
14880;PMS7003;7533;51.278;12.588;2022-08-20T13:18:32;24.75;23.50;15.50
14880;PMS7003;7533;51.278;12.588;2022-08-20T13:23:36;54.00;41.80;26.80
14880;PMS7003;7533;51.278;12.588;2022-08-20T13:28:39;38.40;31.80;19.80
14880;PMS7003;7533;51.278;12.588;2022-08-20T13:33:42;28.00;23.25;15.00
14880;PMS7003;7533;51.278;12.588;2022-08-20T13:38:46;32.40;29.80;19.00
14880;PMS7003;7533;51.278;12.588;2022-08-20T13:43:49;29.00;25.00;16.80
14880;PMS7003;7533;51.278;12.588;2022-08-20T13:48:52;26.25;23.75;14.25
14880;PMS7003;7533;51.278;12.588;2022-08-20T13:53:56;28.40;26.80;17.20
14880;PMS7003;7533;51.278;12.588;2022-08-20T13:58:59;35.80;30.20;18.00
14880;PMS7003;7533;51.278;12.588;2022-08-20T14:04:02;39.00;30.80;19.00
14880;PMS7003;7533;51.278;12.588;2022-08-20T14:09:06;35.40;29.60;18.20
14880;PMS7003;7533;51.278;12.588;2022-08-20T14:14:09;34.20;30.40;19.00
14880;PMS7003;7533;51.278;12.588;2022-08-20T14:19:12;26.60;25.20;15.60
14880;PMS7003;7533;51.278;12.588;2022-08-20T14:24:16;29.60;28.00;16.40
14880;PMS7003;7533;51.278;12.588;2022-08-20T14:29:19;33.00;27.40;16.80
14880;PMS7003;7533;51.278;12.588;2022-08-20T14:34:22;31.40;26.80;16.20
14880;PMS7003;7533;51.278;12.588;2022-08-20T14:39:27;29.25;25.25;15.50
14880;PMS7003;7533;51.278;12.588;2022-08-20T14:44:29;24.50;22.00;13.25
14880;PMS7003;7533;51.278;12.588;2022-08-20T14:49:32;27.60;23.20;14.20
14880;PMS7003;7533;51.278;12.588;2022-08-20T14:54:37;26.00;24.50;14.25
14880;PMS7003;7533;51.278;12.588;2022-08-20T14:59:42;24.00;22.00;14.00
14880;PMS7003;7533;51.278;12.588;2022-08-20T15:04:45;23.00;19.50;13.25
14880;PMS7003;7533;51.278;12.588;2022-08-20T15:09:56;18.50;17.75;12.50
14880;PMS7003;7533;51.278;12.588;2022-08-20T15:15:00;20.25;19.25;12.75
14880;PMS7003;7533;51.278;12.588;2022-08-20T15:20:17;21.25;19.25;13.00
14880;PMS7003;7533;51.278;12.588;2022-08-20T15:25:24;21.00;19.75;13.25
14880;PMS7003;7533;51.278;12.588;2022-08-20T15:30:38;22.75;21.00;13.75
14880;PMS7003;7533;51.278;12.588;2022-08-20T15:35:42;24.80;22.80;14.00
14880;PMS7003;7533;51.278;12.588;2022-08-20T15:40:46;25.00;23.00;14.00
14880;PMS7003;7533;51.278;12.588;2022-08-20T15:45:49;28.75;24.25;13.75
14880;PMS7003;7533;51.278;12.588;2022-08-20T15:50:55;23.00;20.00;13.00
14880;PMS7003;7533;51.278;12.588;2022-08-20T15:56:17;22.00;20.50;11.75
14880;PMS7003;7533;51.278;12.588;2022-08-20T16:01:34;22.25;21.50;13.00
14880;PMS7003;7533;51.278;12.588;2022-08-20T16:06:46;24.00;22.80;14.40
14880;PMS7003;7533;51.278;12.588;2022-08-20T16:11:57;21.25;20.25;12.75
14880;PMS7003;7533;51.278;12.588;2022-08-20T16:17:06;23.60;21.60;13.40
14880;PMS7003;7533;51.278;12.588;2022-08-20T16:22:12;24.80;24.00;14.60
14880;PMS7003;7533;51.278;12.588;2022-08-20T16:27:23;26.00;25.20;16.00
14880;PMS7003;7533;51.278;12.588;2022-08-20T16:32:36;27.00;22.75;14.00
14880;PMS7003;7533;51.278;12.588;2022-08-20T16:37:43;26.40;24.00;14.60
14880;PMS7003;7533;51.278;12.588;2022-08-20T16:42:55;22.50;22.00;13.50
14880;PMS7003;7533;51.278;12.588;2022-08-20T16:48:02;24.50;22.75;14.25
14880;PMS7003;7533;51.278;12.588;2022-08-20T16:53:09;30.60;27.60;16.40
14880;PMS7003;7533;51.278;12.588;2022-08-20T16:58:20;28.60;26.00;17.00
14880;PMS7003;7533;51.278;12.588;2022-08-20T17:03:25;30.80;26.00;16.00
14880;PMS7003;7533;51.278;12.588;2022-08-20T17:08:44;38.60;28.40;17.20
14880;PMS7003;7533;51.278;12.588;2022-08-20T17:14:00;36.40;29.00;18.20
14880;PMS7003;7533;51.278;12.588;2022-08-20T17:19:07;32.40;29.00;17.80
14880;PMS7003;7533;51.278;12.588;2022-08-20T17:24:15;37.60;31.40;18.80
14880;PMS7003;7533;51.278;12.588;2022-08-20T17:29:24;39.20;31.60;19.00
14880;PMS7003;7533;51.278;12.588;2022-08-20T17:34:30;36.80;28.80;19.00
14880;PMS7003;7533;51.278;12.588;2022-08-20T17:39:34;27.50;25.00;14.50
14880;PMS7003;7533;51.278;12.588;2022-08-20T17:44:49;27.50;24.75;13.75
14880;PMS7003;7533;51.278;12.588;2022-08-20T17:49:56;29.25;22.50;13.75
14880;PMS7003;7533;51.278;12.588;2022-08-20T17:55:04;26.40;25.00;15.00
14880;PMS7003;7533;51.278;12.588;2022-08-20T18:00:12;21.75;18.75;12.75
14880;PMS7003;7533;51.278;12.588;2022-08-20T18:05:18;22.50;19.75;13.25
14880;PMS7003;7533;51.278;12.588;2022-08-20T18:10:24;23.25;19.50;12.75
14880;PMS7003;7533;51.278;12.588;2022-08-20T18:15:30;26.75;22.00;14.50
14880;PMS7003;7533;51.278;12.588;2022-08-20T18:20:42;22.00;18.75;11.50
14880;PMS7003;7533;51.278;12.588;2022-08-20T18:26:15;24.00;22.25;14.00
14880;PMS7003;7533;51.278;12.588;2022-08-20T18:31:26;35.60;28.80;16.20
14880;PMS7003;7533;51.278;12.588;2022-08-20T18:36:31;25.20;24.40;15.20
14880;PMS7003;7533;51.278;12.588;2022-08-20T18:41:35;20.50;20.25;13.00
14880;PMS7003;7533;51.278;12.588;2022-08-20T18:46:50;24.75;22.25;15.25
14880;PMS7003;7533;51.278;12.588;2022-08-20T18:51:56;21.00;19.25;13.50
14880;PMS7003;7533;51.278;12.588;2022-08-20T18:57:01;18.75;17.50;11.75
14880;PMS7003;7533;51.278;12.588;2022-08-20T19:02:13;20.80;20.60;14.00
14880;PMS7003;7533;51.278;12.588;2022-08-20T19:07:24;24.80;21.60;13.60
14880;PMS7003;7533;51.278;12.588;2022-08-20T19:18:51;18.00;18.00;11.50
14880;PMS7003;7533;51.278;12.588;2022-08-20T19:23:56;20.75;19.50;13.00
14880;PMS7003;7533;51.278;12.588;2022-08-20T19:29:06;22.50;20.50;12.25
14880;PMS7003;7533;51.278;12.588;2022-08-20T19:34:13;21.50;18.75;12.75
14880;PMS7003;7533;51.278;12.588;2022-08-20T19:39:23;20.75;17.25;11.00
14880;PMS7003;7533;51.278;12.588;2022-08-20T19:44:32;22.50;18.25;11.00
14880;PMS7003;7533;51.278;12.588;2022-08-20T19:49:43;19.25;17.75;11.75
14880;PMS7003;7533;51.278;12.588;2022-08-20T19:54:55;23.75;22.50;14.50
14880;PMS7003;7533;51.278;12.588;2022-08-20T20:00:07;20.00;17.25;11.75
14880;PMS7003;7533;51.278;12.588;2022-08-20T20:05:13;18.50;17.50;10.75
14880;PMS7003;7533;51.278;12.588;2022-08-20T20:10:22;17.50;15.50;10.50
14880;PMS7003;7533;51.278;12.588;2022-08-20T20:15:32;20.60;19.00;12.40
14880;PMS7003;7533;51.278;12.588;2022-08-20T20:20:43;19.00;17.75;12.50
14880;PMS7003;7533;51.278;12.588;2022-08-20T20:25:59;19.20;17.00;12.60
14880;PMS7003;7533;51.278;12.588;2022-08-20T20:31:04;17.25;16.25;10.50
14880;PMS7003;7533;51.278;12.588;2022-08-20T20:36:10;24.40;21.20;13.40
14880;PMS7003;7533;51.278;12.588;2022-08-20T20:41:17;19.00;18.50;12.25
14880;PMS7003;7533;51.278;12.588;2022-08-20T20:46:23;19.80;19.40;13.00
14880;PMS7003;7533;51.278;12.588;2022-08-20T20:51:30;22.00;19.75;12.00
14880;PMS7003;7533;51.278;12.588;2022-08-20T20:56:39;22.00;20.40;14.00
14880;PMS7003;7533;51.278;12.588;2022-08-20T21:01:43;19.40;18.00;11.00
14880;PMS7003;7533;51.278;12.588;2022-08-20T21:06:52;19.60;19.60;11.00
14880;PMS7003;7533;51.278;12.588;2022-08-20T21:11:57;21.25;19.50;11.75
14880;PMS7003;7533;51.278;12.588;2022-08-20T21:17:01;18.25;17.75;10.75
14880;PMS7003;7533;51.278;12.588;2022-08-20T21:22:07;20.75;19.50;12.75
14880;PMS7003;7533;51.278;12.588;2022-08-20T21:27:10;19.75;19.25;12.00
14880;PMS7003;7533;51.278;12.588;2022-08-20T21:32:14;17.75;17.75;9.75
14880;PMS7003;7533;51.278;12.588;2022-08-20T21:37:19;21.50;21.25;12.25
14880;PMS7003;7533;51.278;12.588;2022-08-20T21:42:22;25.40;23.20;12.00
14880;PMS7003;7533;51.278;12.588;2022-08-20T21:47:30;20.75;19.50;10.75
14880;PMS7003;7533;51.278;12.588;2022-08-20T21:52:34;27.60;23.20;14.60
14880;PMS7003;7533;51.278;12.588;2022-08-20T21:57:45;27.60;21.60;13.00
14880;PMS7003;7533;51.278;12.588;2022-08-20T22:02:48;24.50;20.50;11.00
14880;PMS7003;7533;51.278;12.588;2022-08-20T22:07:53;28.80;26.40;15.80
14880;PMS7003;7533;51.278;12.588;2022-08-20T22:12:56;33.00;26.20;15.60
14880;PMS7003;7533;51.278;12.588;2022-08-20T22:18:00;26.20;25.60;16.00
14880;PMS7003;7533;51.278;12.588;2022-08-20T22:23:04;34.00;28.60;14.60
14880;PMS7003;7533;51.278;12.588;2022-08-20T22:28:07;32.20;28.40;18.40
14880;PMS7003;7533;51.278;12.588;2022-08-20T22:33:12;31.00;26.40;16.00
14880;PMS7003;7533;51.278;12.588;2022-08-20T22:38:19;38.00;31.20;19.20
14880;PMS7003;7533;51.278;12.588;2022-08-20T22:43:22;33.80;28.60;16.40
14880;PMS7003;7533;51.278;12.588;2022-08-20T22:48:25;32.80;27.60;17.20
14880;PMS7003;7533;51.278;12.588;2022-08-20T22:53:31;38.00;29.80;18.00
14880;PMS7003;7533;51.278;12.588;2022-08-20T22:58:34;33.80;30.60;18.80
14880;PMS7003;7533;51.278;12.588;2022-08-20T23:03:37;35.40;29.00;17.00
14880;PMS7003;7533;51.278;12.588;2022-08-20T23:08:42;31.60;25.60;17.00
14880;PMS7003;7533;51.278;12.588;2022-08-20T23:13:46;31.40;25.80;17.40
14880;PMS7003;7533;51.278;12.588;2022-08-20T23:18:49;29.80;26.80;16.00
14880;PMS7003;7533;51.278;12.588;2022-08-20T23:23:53;27.60;26.80;15.00
14880;PMS7003;7533;51.278;12.588;2022-08-20T23:28:56;27.00;22.50;13.75
14880;PMS7003;7533;51.278;12.588;2022-08-20T23:33:59;23.75;22.25;13.50
14880;PMS7003;7533;51.278;12.588;2022-08-20T23:39:03;24.80;22.20;13.40
14880;PMS7003;7533;51.278;12.588;2022-08-20T23:44:08;28.00;24.20;14.00
14880;PMS7003;7533;51.278;12.588;2022-08-20T23:49:27;30.20;27.00;16.80
14880;PMS7003;7533;51.278;12.588;2022-08-20T23:54:32;28.80;27.20;17.20
14880;PMS7003;7533;51.278;12.588;2022-08-20T23:59:37;31.60;27.80;17.40
